Bryant, Arkansas
Current Conditions -  °F | °C
As of 3:53 PM on Friday 24 Oct 2014 (Local Time) from KLIT Reporting Station
Broken Clouds Broken Clouds  
Wind Chill: 78°   Ceiling: 25000
Heat Index: 79°   Visibility: 10mi
Dew Point: 52°   Wind: 5mph
Humidity: 40%   Direction: 210°SSW
Pressure: 30.09"   Gusts: NA
Location:  34.59°N, 92.49°W
Report Text: KLIT 242053Z 21004KT 10SM BKN250 26/11 A3009 RMK AO2 SLP189 T02560111 56018
Loading
Personal Weather Stations






























Interactive Weather Map
Tropical Storm Tracking
New forecast layout! Learn more

10-Day Weather Forecast

Advertisements
Track Severe Weather on mobile